createdAt,value
2018-01-21T00:01:16.471Z,1.00
2018-01-21T00:03:43.963Z,1.00
2018-01-21T00:06:12.237Z,1.00
2018-01-21T00:08:40.483Z,1.10
2018-01-21T00:11:07.965Z,1.00
2018-01-21T00:13:36.246Z,1.00
2018-01-21T00:16:04.496Z,1.00
2018-01-21T00:18:31.976Z,1.00
2018-01-21T00:21:00.222Z,1.00
2018-01-21T00:23:27.718Z,1.00
2018-01-21T00:25:56.068Z,1.00
2018-01-21T00:28:23.658Z,1.00
2018-01-21T00:30:51.926Z,1.00
2018-01-21T00:33:20.223Z,1.00
2018-01-21T00:35:48.501Z,1.00
2018-01-21T00:38:16.736Z,1.00
2018-01-21T00:40:45.009Z,1.00
2018-01-21T00:43:12.488Z,1.00
2018-01-21T00:45:39.953Z,1.00
2018-01-21T00:48:08.206Z,1.10
2018-01-21T00:50:35.693Z,1.10
2018-01-21T00:53:03.929Z,1.00
2018-01-21T00:55:32.933Z,1.00
2018-01-21T00:58:00.419Z,1.00
2018-01-21T01:00:28.649Z,1.10
2018-01-21T01:02:56.273Z,1.10
2018-01-21T01:05:23.754Z,1.10
2018-01-21T01:07:51.265Z,1.10
2018-01-21T01:10:18.835Z,1.10
2018-01-21T01:12:47.082Z,1.10
2018-01-21T01:15:14.566Z,1.10
2018-01-21T01:17:42.857Z,1.10
2018-01-21T01:20:10.399Z,1.10
2018-01-21T01:22:38.630Z,1.20
2018-01-21T01:25:06.130Z,1.20
2018-01-21T01:27:33.614Z,1.20
2018-01-21T01:30:01.152Z,1.20
2018-01-21T01:32:32.406Z,1.20
2018-01-21T01:35:00.658Z,1.20
2018-01-21T01:37:28.126Z,1.20
2018-01-21T01:39:56.378Z,1.20
2018-01-21T01:42:23.899Z,1.20
2018-01-21T01:44:51.373Z,1.20
2018-01-21T01:47:18.837Z,1.20
2018-01-21T01:49:46.325Z,1.30
2018-01-21T01:52:14.638Z,1.30
2018-01-21T01:54:42.117Z,1.30
2018-01-21T01:57:09.601Z,1.30
2018-01-21T01:59:37.089Z,1.30
2018-01-21T02:02:05.366Z,1.30
2018-01-21T02:04:33.632Z,1.20
2018-01-21T02:07:01.109Z,1.20
2018-01-21T02:09:29.396Z,1.20
2018-01-21T02:11:56.852Z,1.20
2018-01-21T02:14:24.384Z,1.20
2018-01-21T02:16:51.945Z,1.20
2018-01-21T02:19:19.439Z,1.20
2018-01-21T02:21:46.971Z,1.20
2018-01-21T02:24:14.440Z,1.20
2018-01-21T02:26:42.690Z,1.20
2018-01-21T02:29:10.162Z,1.20
2018-01-21T02:31:37.717Z,1.20
2018-01-21T02:34:05.278Z,1.20
2018-01-21T02:36:32.746Z,1.20
2018-01-21T02:39:00.990Z,1.20
2018-01-21T02:41:28.573Z,1.20
2018-01-21T02:43:56.806Z,1.10
2018-01-21T02:46:24.313Z,1.10
2018-01-21T02:48:52.679Z,1.10
2018-01-21T02:51:20.155Z,1.10
2018-01-21T02:53:48.393Z,1.20
2018-01-21T02:56:15.891Z,1.10
2018-01-21T02:58:44.129Z,1.10
2018-01-21T03:01:11.603Z,1.10
2018-01-21T03:03:39.183Z,1.20
2018-01-21T03:06:07.462Z,1.20
2018-01-21T03:08:35.702Z,1.20
2018-01-21T03:11:03.195Z,1.20
2018-01-21T03:13:31.471Z,1.20
2018-01-21T03:15:59.026Z,1.20
2018-01-21T03:18:27.291Z,1.20
2018-01-21T03:20:56.294Z,1.20
2018-01-21T03:23:24.534Z,1.20
2018-01-21T03:25:52.030Z,1.20
2018-01-21T03:28:20.310Z,1.20
2018-01-21T03:30:48.551Z,1.10
2018-01-21T03:33:16.034Z,1.10
2018-01-21T03:35:43.602Z,1.10
2018-01-21T03:38:11.842Z,1.10
2018-01-21T03:40:39.335Z,1.10
2018-01-21T03:43:07.574Z,1.10
2018-01-21T03:45:35.038Z,1.10
2018-01-21T03:48:02.521Z,1.10
2018-01-21T03:50:29.989Z,1.00
2018-01-21T03:52:58.262Z,1.00
2018-01-21T03:55:26.505Z,1.00
2018-01-21T03:57:53.995Z,1.00
2018-01-21T04:00:22.228Z,1.00
2018-01-21T04:02:49.716Z,1.00
2018-01-21T04:05:17.303Z,1.00
2018-01-21T04:07:45.539Z,1.00
2018-01-21T04:10:13.026Z,1.00
2018-01-21T04:12:41.288Z,1.00
2018-01-21T04:15:08.769Z,1.00
2018-01-21T04:17:37.043Z,1.00
2018-01-21T04:20:05.287Z,1.00
2018-01-21T04:22:32.760Z,1.00
2018-01-21T04:25:00.246Z,1.00
2018-01-21T04:27:27.796Z,1.00
2018-01-21T04:29:56.034Z,0.90
2018-01-21T04:32:23.526Z,0.90
2018-01-21T04:34:51.762Z,0.90
2018-01-21T04:37:19.230Z,0.90
2018-01-21T04:39:46.718Z,0.90
2018-01-21T04:42:14.954Z,0.90
2018-01-21T04:44:42.438Z,0.90
2018-01-21T04:47:10.695Z,0.90
2018-01-21T04:49:38.193Z,0.90
2018-01-21T04:52:06.429Z,0.90
2018-01-21T04:54:33.917Z,0.90
2018-01-21T04:57:02.157Z,0.90
2018-01-21T04:59:29.629Z,0.90
2018-01-21T05:01:57.893Z,0.90
2018-01-21T05:04:25.372Z,0.90
2018-01-21T05:06:52.863Z,0.90
2018-01-21T05:09:20.369Z,0.90
2018-01-21T05:11:47.854Z,0.90
2018-01-21T05:14:15.335Z,0.90
2018-01-21T05:16:43.585Z,1.00
2018-01-21T05:19:11.154Z,0.90
2018-01-21T05:21:39.398Z,1.00
2018-01-21T05:24:06.884Z,1.00
2018-01-21T05:26:35.134Z,1.00
2018-01-21T05:29:02.643Z,1.00
2018-01-21T05:31:30.878Z,1.10
2018-01-21T05:33:58.362Z,1.10
2018-01-21T05:36:26.598Z,1.10
2018-01-21T05:38:54.094Z,1.10
2018-01-21T05:41:22.362Z,1.10
2018-01-21T05:43:49.842Z,1.10
2018-01-21T05:46:18.105Z,1.10
2018-01-21T05:48:46.350Z,1.10
2018-01-21T05:51:13.830Z,1.10
2018-01-21T05:53:41.312Z,1.00
2018-01-21T05:56:08.801Z,1.00
2018-01-21T05:58:36.278Z,1.00
2018-01-21T06:01:04.113Z,1.00
2018-01-21T06:03:31.597Z,1.00
2018-01-21T06:05:59.065Z,1.00
2018-01-21T06:08:26.553Z,1.00
2018-01-21T06:10:54.835Z,1.00
2018-01-21T06:13:23.075Z,1.00
2018-01-21T06:15:50.563Z,1.00
2018-01-21T06:18:18.812Z,1.10
2018-01-21T06:20:46.306Z,1.00
2018-01-21T06:23:14.572Z,1.10
2018-01-21T06:25:42.819Z,1.10
2018-01-21T06:28:10.290Z,1.10
2018-01-21T06:30:39.298Z,1.10
2018-01-21T06:33:06.766Z,1.10
2018-01-21T06:35:35.034Z,1.10
2018-01-21T06:38:03.280Z,1.10
2018-01-21T06:40:30.742Z,1.10
2018-01-21T06:42:58.981Z,1.10
2018-01-21T06:45:26.465Z,1.10
2018-01-21T06:47:53.962Z,1.10
2018-01-21T06:50:22.201Z,1.10
2018-01-21T06:52:49.692Z,1.10
2018-01-21T06:55:17.966Z,1.10
2018-01-21T06:57:46.246Z,1.10
2018-01-21T07:00:14.499Z,1.10
2018-01-21T07:02:41.967Z,1.10
2018-01-21T07:05:10.949Z,1.10
2018-01-21T07:07:38.433Z,1.10
2018-01-21T07:10:06.682Z,1.20
2018-01-21T07:12:34.165Z,1.20
2018-01-21T07:15:01.736Z,1.20
2018-01-21T07:17:29.975Z,1.20
2018-01-21T07:19:57.448Z,1.20
2018-01-21T07:22:26.463Z,1.30
2018-01-21T07:24:54.702Z,1.30
2018-01-21T07:27:22.191Z,1.30
2018-01-21T07:29:50.438Z,1.30
2018-01-21T07:32:17.922Z,1.30
2018-01-21T07:34:46.173Z,1.40
2018-01-21T07:37:13.660Z,1.40
2018-01-21T07:39:41.898Z,1.40
2018-01-21T07:42:09.426Z,1.40
2018-01-21T07:44:36.953Z,1.40
2018-01-21T07:47:05.228Z,1.50
2018-01-21T07:49:33.465Z,1.50
2018-01-21T07:52:00.949Z,1.60
2018-01-21T07:54:28.522Z,1.60
2018-01-21T07:56:56.793Z,1.70
2018-01-21T07:59:24.359Z,1.70
2018-01-21T08:01:52.594Z,1.70
2018-01-21T08:04:20.075Z,1.70
2018-01-21T08:06:53.288Z,1.80
2018-01-21T08:09:21.544Z,1.80
2018-01-21T08:11:49.021Z,1.80
2018-01-21T08:14:17.265Z,1.90
2018-01-21T08:16:44.755Z,1.90
2018-01-21T08:19:13.005Z,1.90
2018-01-21T08:21:40.489Z,1.90
2018-01-21T08:24:08.743Z,1.90
2018-01-21T08:26:37.733Z,1.90
2018-01-21T08:29:05.219Z,1.90
2018-01-21T08:31:33.455Z,1.80
2018-01-21T08:34:06.553Z,1.80
2018-01-21T08:36:39.651Z,1.80
2018-01-21T08:39:12.717Z,1.80
2018-01-21T08:41:42.210Z,1.80
2018-01-21T08:44:09.688Z,1.80
2018-01-21T08:46:37.186Z,1.80
2018-01-21T08:49:05.466Z,1.90
2018-01-21T08:51:33.735Z,1.90
2018-01-21T08:54:01.990Z,2.00
2018-01-21T08:56:29.483Z,2.00
2018-01-21T08:58:56.962Z,2.00
2018-01-21T09:01:24.484Z,2.00
2018-01-21T09:03:52.730Z,2.10
2018-01-21T09:06:20.194Z,2.10
2018-01-21T09:08:47.738Z,2.10
2018-01-21T09:11:15.268Z,2.20
2018-01-21T09:13:42.778Z,2.30
2018-01-21T09:16:11.074Z,2.20
2018-01-21T09:18:39.353Z,2.20
2018-01-21T09:21:07.599Z,2.30
2018-01-21T09:23:35.093Z,2.30
2018-01-21T09:26:03.361Z,2.50
2018-01-21T09:28:31.601Z,2.50
2018-01-21T09:30:59.089Z,2.50
2018-01-21T09:33:26.565Z,2.50
2018-01-21T09:35:54.805Z,2.60
2018-01-21T09:38:22.287Z,2.60
2018-01-21T09:40:50.559Z,2.70
2018-01-21T09:43:18.849Z,2.70
2018-01-21T09:45:47.107Z,2.60
2018-01-21T09:48:14.585Z,2.70
2018-01-21T09:50:42.866Z,2.70
2018-01-21T09:53:11.128Z,2.70
2018-01-21T09:55:39.390Z,2.70
2018-01-21T09:58:07.000Z,2.70
2018-01-21T10:00:34.503Z,2.70
2018-01-21T10:03:02.038Z,2.80
2018-01-21T10:05:29.551Z,2.70
2018-01-21T10:07:57.812Z,2.70
2018-01-21T10:10:26.087Z,2.60
2018-01-21T10:12:53.568Z,2.60
2018-01-21T10:15:21.845Z,2.40
2018-01-21T10:17:50.094Z,2.30
2018-01-21T10:20:17.608Z,2.30
2018-01-21T10:22:45.126Z,2.40
2018-01-21T10:25:13.357Z,2.30
2018-01-21T10:27:40.825Z,2.40
2018-01-21T10:30:08.417Z,2.30
2018-01-21T10:32:36.665Z,2.40
2018-01-21T10:35:04.129Z,2.40
2018-01-21T10:37:31.619Z,2.40
2018-01-21T10:39:59.901Z,2.40
2018-01-21T10:42:27.443Z,2.30
2018-01-21T10:44:54.924Z,2.40
2018-01-21T10:47:22.404Z,2.30
2018-01-21T10:49:49.882Z,2.40
2018-01-21T10:52:17.368Z,2.50
2018-01-21T10:54:44.940Z,2.50
2018-01-21T10:57:13.179Z,2.40
2018-01-21T10:59:40.666Z,2.50
2018-01-21T11:02:08.130Z,2.50
2018-01-21T11:04:36.368Z,2.80
2018-01-21T11:07:03.857Z,2.80
2018-01-21T11:09:31.326Z,2.80
2018-01-21T11:11:59.569Z,2.60
2018-01-21T11:14:27.074Z,2.60
2018-01-21T11:16:54.614Z,2.60
2018-01-21T11:19:22.904Z,2.80
2018-01-21T11:21:51.158Z,3.00
2018-01-21T11:24:18.726Z,3.00
2018-01-21T11:26:47.064Z,3.20
2018-01-21T11:29:14.683Z,3.20
2018-01-21T11:31:42.913Z,3.10
2018-01-21T11:34:10.391Z,3.10
2018-01-21T11:36:37.967Z,3.10
2018-01-21T11:39:06.205Z,3.30
2018-01-21T11:41:33.699Z,3.20
2018-01-21T11:44:01.979Z,3.20
2018-01-21T11:46:30.233Z,3.20
2018-01-21T11:48:58.483Z,3.10
2018-01-21T11:51:25.991Z,3.10
2018-01-21T11:53:54.239Z,3.10
2018-01-21T11:56:21.755Z,3.10
2018-01-21T11:58:49.271Z,3.20
2018-01-21T12:01:16.760Z,3.20
2018-01-21T12:03:44.294Z,3.10
2018-01-21T12:06:12.578Z,3.00
2018-01-21T12:08:41.630Z,3.10
2018-01-21T12:11:09.101Z,3.10
2018-01-21T12:13:36.585Z,3.10
2018-01-21T12:16:04.864Z,3.20
2018-01-21T12:18:33.136Z,3.20
2018-01-21T12:21:01.388Z,3.30
2018-01-21T12:23:28.861Z,3.30
2018-01-21T12:25:56.330Z,3.30
2018-01-21T12:28:24.602Z,3.40
2018-01-21T12:30:52.848Z,3.50
2018-01-21T12:33:20.327Z,3.40
2018-01-21T12:35:47.823Z,3.50
2018-01-21T12:38:15.359Z,3.60
2018-01-21T12:40:43.634Z,3.90
2018-01-21T12:43:11.887Z,3.80
2018-01-21T12:45:39.364Z,3.80
2018-01-21T12:48:07.618Z,3.60
2018-01-21T12:50:35.111Z,3.60
2018-01-21T12:53:03.352Z,3.40
2018-01-21T12:55:32.340Z,3.20
2018-01-21T12:57:59.830Z,3.20
2018-01-21T13:00:28.080Z,3.20
2018-01-21T13:02:55.558Z,3.20
2018-01-21T13:05:23.116Z,3.10
2018-01-21T13:07:50.734Z,3.20
2018-01-21T13:10:18.224Z,3.20
2018-01-21T13:12:45.811Z,3.20
2018-01-21T13:15:14.068Z,3.30
2018-01-21T13:17:41.639Z,3.30
2018-01-21T13:20:09.918Z,3.30
2018-01-21T13:22:38.195Z,3.30
2018-01-21T13:25:06.467Z,3.20
2018-01-21T13:27:34.743Z,3.10
2018-01-21T13:30:02.986Z,3.00
2018-01-21T13:32:30.463Z,3.00
2018-01-21T13:34:57.941Z,2.90
2018-01-21T13:37:26.183Z,2.80
2018-01-21T13:39:53.649Z,2.80
2018-01-21T13:42:21.915Z,2.80
2018-01-21T13:44:49.391Z,2.80
2018-01-21T13:47:16.856Z,2.70
2018-01-21T13:49:44.350Z,2.70
2018-01-21T13:52:11.923Z,2.70
2018-01-21T13:54:39.375Z,2.70
2018-01-21T13:57:06.900Z,2.70
2018-01-21T13:59:34.358Z,2.60
2018-01-21T14:02:02.590Z,2.50
2018-01-21T14:04:30.078Z,2.50
2018-01-21T14:06:57.550Z,2.40
2018-01-21T14:09:25.814Z,2.30
2018-01-21T14:11:53.445Z,2.30
2018-01-21T14:14:20.979Z,2.30
2018-01-21T14:16:48.497Z,2.20
2018-01-21T14:19:15.978Z,2.20
2018-01-21T14:21:43.451Z,2.20
2018-01-21T14:24:10.922Z,2.10
2018-01-21T14:26:38.433Z,2.10
2018-01-21T14:29:06.709Z,2.10
2018-01-21T14:31:34.955Z,2.00
2018-01-21T14:34:02.672Z,2.00
2018-01-21T14:36:30.157Z,2.00
2018-01-21T14:38:57.627Z,2.00
2018-01-21T14:41:25.142Z,2.00
2018-01-21T14:43:54.011Z,1.90
2018-01-21T14:46:21.518Z,1.90
2018-01-21T14:48:48.982Z,1.90
2018-01-21T14:51:16.831Z,1.90
2018-01-21T14:53:44.502Z,1.90
2018-01-21T14:56:12.020Z,1.90
2018-01-21T14:58:40.259Z,1.90
2018-01-21T15:01:07.738Z,1.80
2018-01-21T15:03:36.032Z,1.80
2018-01-21T15:06:04.274Z,1.70
2018-01-21T15:08:31.738Z,1.70
2018-01-21T15:10:59.325Z,1.70
2018-01-21T15:13:27.597Z,1.60
2018-01-21T15:15:55.161Z,1.60
2018-01-21T15:18:23.411Z,1.60
2018-01-21T15:20:50.881Z,1.60
2018-01-21T15:23:19.169Z,1.60
2018-01-21T15:25:46.661Z,1.50
2018-01-21T15:28:14.195Z,1.50
2018-01-21T15:30:42.471Z,1.40
2018-01-21T15:33:10.745Z,1.40
2018-01-21T15:35:38.213Z,1.30
2018-01-21T15:38:06.451Z,1.30
2018-01-21T15:40:34.039Z,1.30
2018-01-21T15:43:02.283Z,1.30
2018-01-21T15:45:29.757Z,1.30
2018-01-21T15:47:58.762Z,1.30
2018-01-21T15:50:26.470Z,1.30
2018-01-21T15:52:53.945Z,1.30
2018-01-21T15:55:21.428Z,1.20
2018-01-21T15:57:48.894Z,1.20
2018-01-21T16:00:16.466Z,1.10
2018-01-21T16:02:44.014Z,1.10
2018-01-21T16:05:11.486Z,1.00
2018-01-21T16:07:39.726Z,1.00
2018-01-21T16:10:07.207Z,1.00
2018-01-21T16:12:34.673Z,1.00
2018-01-21T16:15:02.910Z,1.00
2018-01-21T16:17:30.402Z,0.90
2018-01-21T16:19:58.646Z,0.90
2018-01-21T16:22:26.882Z,0.90
2018-01-21T16:24:54.365Z,0.80
2018-01-21T16:27:21.873Z,0.90
2018-01-21T16:29:50.119Z,0.90
2018-01-21T16:32:17.603Z,0.80
2018-01-21T16:34:45.077Z,0.80
2018-01-21T16:37:25.169Z,0.60
2018-01-21T16:39:52.651Z,0.60
2018-01-21T16:42:20.133Z,0.50
2018-01-21T16:44:47.703Z,0.50
2018-01-21T16:47:15.981Z,0.50
2018-01-21T16:49:44.226Z,0.50
2018-01-21T16:52:11.737Z,0.50
2018-01-21T16:54:39.218Z,0.50
2018-01-21T16:57:06.728Z,0.50
2018-01-21T16:59:34.990Z,0.50
2018-01-21T17:02:03.231Z,0.40
2018-01-21T17:04:30.706Z,0.40
2018-01-21T17:06:58.198Z,0.40
2018-01-21T17:09:26.434Z,0.30
2018-01-21T17:11:53.926Z,0.30
2018-01-21T17:14:22.182Z,0.30
2018-01-21T17:16:50.482Z,0.30
2018-01-21T17:19:18.726Z,0.30
2018-01-21T17:21:46.224Z,0.30
2018-01-21T17:24:14.466Z,0.30
2018-01-21T17:26:41.937Z,0.30
2018-01-21T17:29:09.431Z,0.20
2018-01-21T17:31:36.907Z,0.20
2018-01-21T17:34:04.384Z,0.20
2018-01-21T17:36:31.883Z,0.30
2018-01-21T17:39:00.143Z,0.20
2018-01-21T17:41:28.432Z,0.10
2018-01-21T17:43:56.697Z,0.00
2018-01-21T17:46:25.703Z,0.00
2018-01-21T17:48:53.289Z,0.00
2018-01-21T17:51:20.787Z,-0.10
2018-01-21T17:53:48.531Z,-0.10
2018-01-21T17:56:16.055Z,-0.10
2018-01-21T17:58:44.427Z,-0.20
2018-01-21T18:01:13.115Z,-0.30
2018-01-21T18:03:41.386Z,-0.30
2018-01-21T18:06:09.650Z,-0.30
2018-01-21T18:08:38.642Z,-0.30
2018-01-21T18:11:07.644Z,-0.20
2018-01-21T18:13:36.646Z,-0.20
2018-01-21T18:16:04.926Z,-0.30
2018-01-21T18:18:33.170Z,-0.30
2018-01-21T18:21:01.066Z,-0.30
2018-01-21T18:23:29.320Z,-0.40
2018-01-21T18:25:56.802Z,-0.40
2018-01-21T18:28:25.070Z,-0.40
2018-01-21T18:30:52.549Z,-0.40
2018-01-21T18:33:20.801Z,-0.50
2018-01-21T18:35:49.099Z,-0.50
2018-01-21T18:38:17.348Z,-0.60
2018-01-21T18:40:45.605Z,-0.60
2018-01-21T18:43:13.109Z,-0.60
2018-01-21T18:45:41.367Z,-0.70
2018-01-21T18:48:08.882Z,-0.70
2018-01-21T18:50:36.391Z,-0.70
2018-01-21T18:53:03.931Z,-0.70
2018-01-21T18:55:31.418Z,-0.70
2018-01-21T18:57:59.695Z,-0.80
2018-01-21T19:00:27.993Z,-0.80
2018-01-21T19:02:55.484Z,-0.80
2018-01-21T19:05:22.969Z,-0.90
2018-01-21T19:07:50.463Z,-1.00
2018-01-21T19:10:17.962Z,-1.10
2018-01-21T19:12:45.468Z,-1.10
2018-01-21T19:15:13.710Z,-1.00
2018-01-21T19:17:41.194Z,-1.10
2018-01-21T19:20:09.476Z,-1.00
2018-01-21T19:22:37.718Z,-1.00
2018-01-21T19:25:05.212Z,-1.00
2018-01-21T19:27:33.470Z,-1.10
2018-01-21T19:30:01.762Z,-1.10
2018-01-21T19:32:30.013Z,-1.10
2018-01-21T19:34:57.515Z,-1.10
2018-01-21T19:37:24.997Z,-1.10
2018-01-21T19:40:04.261Z,-1.20
2018-01-21T19:42:32.678Z,-1.10
2018-01-21T19:45:00.947Z,-1.20
2018-01-21T19:47:29.327Z,-1.30
2018-01-21T19:49:57.609Z,-1.40
2018-01-21T19:52:25.863Z,-1.50
2018-01-21T19:54:53.362Z,-1.50
2018-01-21T19:57:20.923Z,-1.50
2018-01-21T19:59:48.411Z,-1.50
2018-01-21T20:02:15.903Z,-1.40
2018-01-21T20:04:43.459Z,-1.40
2018-01-21T20:07:10.953Z,-1.40
2018-01-21T20:09:38.488Z,-1.40
2018-01-21T20:12:06.745Z,-1.50
2018-01-21T20:14:34.230Z,-1.50
2018-01-21T20:17:01.734Z,-1.60
2018-01-21T20:19:29.224Z,-1.70
2018-01-21T20:21:56.716Z,-1.80
2018-01-21T20:24:24.208Z,-1.80
2018-01-21T20:26:51.693Z,-1.70
2018-01-21T20:29:19.182Z,-1.80
2018-01-21T20:31:47.475Z,-2.00
2018-01-21T20:34:15.015Z,-2.10
2018-01-21T20:36:42.589Z,-2.10
2018-01-21T20:39:10.089Z,-2.10
2018-01-21T20:41:37.584Z,-2.20
2018-01-21T20:44:05.829Z,-2.20
2018-01-21T20:46:33.336Z,-2.20
2018-01-21T20:49:00.827Z,-2.20
2018-01-21T20:51:34.055Z,-2.30
2018-01-21T20:54:07.311Z,-2.30
2018-01-21T20:56:34.835Z,-2.40
2018-01-21T20:59:03.091Z,-2.40
2018-01-21T21:01:30.591Z,-2.40
2018-01-21T21:03:58.083Z,-2.30
2018-01-21T21:06:25.571Z,-2.20
2018-01-21T21:08:53.858Z,-1.90
2018-01-21T21:11:22.122Z,-1.60
2018-01-21T21:13:50.408Z,-1.30
2018-01-21T21:16:18.674Z,-1.20
2018-01-21T21:18:46.938Z,-1.10
2018-01-21T21:21:15.182Z,-1.10
2018-01-21T21:23:42.828Z,-1.10
2018-01-21T21:26:10.350Z,-1.10
2018-01-21T21:28:38.730Z,-1.00
2018-01-21T21:31:06.982Z,-1.00
2018-01-21T21:33:34.480Z,-1.00
2018-01-21T21:36:02.726Z,-0.90
2018-01-21T21:38:30.210Z,-0.90
2018-01-21T21:40:58.462Z,-0.80
2018-01-21T21:43:26.724Z,-0.70
2018-01-21T21:45:54.198Z,-0.80
2018-01-21T21:48:22.014Z,-0.70
2018-01-21T21:50:49.537Z,-0.60
2018-01-21T21:53:17.783Z,-0.50
2018-01-21T21:55:45.345Z,-0.50
2018-01-21T21:58:12.825Z,-0.50
2018-01-21T22:00:41.139Z,-0.40
2018-01-21T22:03:08.653Z,-0.40
2018-01-21T22:05:36.221Z,-0.40
2018-01-21T22:08:05.459Z,-0.30
2018-01-21T22:10:32.985Z,-0.30
2018-01-21T22:13:01.233Z,-0.20
2018-01-21T22:15:28.742Z,-0.30
2018-01-21T22:17:56.278Z,-0.20
2018-01-21T22:20:24.526Z,-0.30
2018-01-21T22:22:52.114Z,-0.20
2018-01-21T22:25:20.385Z,-0.30
2018-01-21T22:27:47.904Z,-0.30
2018-01-21T22:30:15.396Z,-0.20
2018-01-21T22:32:42.969Z,-0.20
2018-01-21T22:35:11.229Z,-0.20
2018-01-21T22:37:38.706Z,-0.20
2018-01-21T22:40:06.982Z,-0.20
2018-01-21T22:42:35.221Z,-0.10
2018-01-21T22:45:02.705Z,-0.20
2018-01-21T22:47:30.515Z,-0.20
2018-01-21T22:49:58.037Z,-0.20
2018-01-21T22:52:26.289Z,-0.20
2018-01-21T22:54:53.781Z,-0.20
2018-01-21T22:57:22.037Z,-0.10
2018-01-21T22:59:49.610Z,-0.20
2018-01-21T23:02:17.875Z,-0.10
2018-01-21T23:04:45.357Z,-0.10
2018-01-21T23:20:02.639Z,0.00
2018-01-21T23:22:31.630Z,0.00
2018-01-21T23:24:59.128Z,0.00
2018-01-21T23:27:26.630Z,0.00
2018-01-21T23:29:54.126Z,0.00
2018-01-21T23:32:22.369Z,0.00
2018-01-21T23:34:49.860Z,0.00
2018-01-21T23:37:18.140Z,0.00
2018-01-21T23:39:45.617Z,0.00
2018-01-21T23:42:13.189Z,0.00
2018-01-21T23:44:40.665Z,0.00
2018-01-21T23:47:08.211Z,0.00
2018-01-21T23:49:35.814Z,0.00
2018-01-21T23:52:03.292Z,0.10
2018-01-21T23:54:31.539Z,0.00
2018-01-21T23:56:59.035Z,0.00
2018-01-21T23:59:26.519Z,0.00
